createdAt,value
2023-04-17T00:01:40.003Z,7.77
2023-04-17T00:04:11.571Z,7.40
2023-04-17T00:06:43.701Z,9.20
2023-04-17T00:09:15.803Z,8.40
2023-04-17T00:11:45.403Z,9.20
2023-04-17T00:14:17.494Z,8.60
2023-04-17T00:16:47.015Z,7.50
2023-04-17T00:19:15.777Z,8.83
2023-04-17T00:21:44.755Z,9.30
2023-04-17T00:24:16.689Z,9.30
2023-04-17T00:26:45.594Z,8.43
2023-04-17T00:29:14.860Z,9.63
2023-04-17T00:31:48.578Z,9.13
2023-04-17T00:34:17.467Z,8.33
2023-04-17T00:36:46.400Z,7.73
2023-04-17T00:39:17.880Z,8.53
2023-04-17T00:41:48.153Z,8.33
2023-04-17T00:44:19.830Z,8.03
2023-04-17T00:46:49.166Z,8.63
2023-04-17T00:49:19.024Z,8.97
2023-04-17T00:51:50.800Z,8.00
2023-04-17T00:54:23.590Z,7.50
2023-04-17T00:56:56.747Z,9.43
2023-04-17T00:59:27.281Z,8.07
2023-04-17T01:01:56.135Z,10.13
2023-04-17T01:04:26.725Z,9.30
2023-04-17T01:06:57.027Z,7.50
2023-04-17T01:09:28.684Z,7.73
2023-04-17T01:12:18.436Z,8.90
2023-04-17T01:14:47.737Z,7.90
2023-04-17T01:17:19.296Z,8.80
2023-04-17T01:19:50.369Z,8.97
2023-04-17T01:22:20.245Z,8.10
2023-04-17T01:24:55.600Z,8.90
2023-04-17T01:27:27.044Z,8.27
2023-04-17T01:29:57.595Z,7.83
2023-04-17T01:32:26.729Z,9.37
2023-04-17T01:34:55.444Z,8.47
2023-04-17T01:37:24.077Z,9.77
2023-04-17T01:40:00.395Z,9.60
2023-04-17T01:42:29.845Z,8.10
2023-04-17T01:45:00.675Z,7.80
2023-04-17T01:47:30.628Z,9.13
2023-04-17T01:50:01.827Z,10.30
2023-04-17T01:52:31.076Z,8.67
2023-04-17T01:55:07.459Z,10.47
2023-04-17T01:57:39.299Z,8.37
2023-04-17T02:00:11.020Z,8.97
2023-04-17T02:02:45.434Z,9.40
2023-04-17T02:05:14.661Z,9.20
2023-04-17T02:07:45.542Z,10.43
2023-04-17T02:10:16.303Z,11.00
2023-04-17T02:12:45.906Z,10.70
2023-04-17T02:15:15.351Z,11.10
2023-04-17T02:17:44.495Z,11.97
2023-04-17T02:20:15.654Z,13.17
2023-04-17T02:22:45.133Z,12.00
2023-04-17T02:25:16.094Z,10.93
2023-04-17T02:27:44.705Z,11.30
2023-04-17T02:30:16.936Z,11.90
2023-04-17T02:32:46.390Z,14.13
2023-04-17T02:35:15.621Z,12.57
2023-04-17T02:37:45.584Z,13.97
2023-04-17T02:40:17.626Z,14.03
2023-04-17T02:42:47.330Z,13.90
2023-04-17T02:45:16.812Z,12.93
2023-04-17T02:47:47.349Z,12.87
2023-04-17T02:50:16.922Z,14.47
2023-04-17T02:53:15.874Z,12.60
2023-04-17T02:55:46.076Z,12.43
2023-04-17T02:58:18.796Z,12.77
2023-04-17T03:00:48.520Z,14.50
2023-04-17T03:03:19.989Z,13.30
2023-04-17T03:05:48.827Z,12.23
2023-04-17T03:08:18.691Z,12.33
2023-04-17T03:10:51.192Z,10.40
2023-04-17T03:13:20.198Z,9.80
2023-04-17T03:15:48.941Z,11.00
2023-04-17T03:18:18.804Z,10.80
2023-04-17T03:20:47.886Z,11.20
2023-04-17T03:23:17.591Z,12.73
2023-04-17T03:25:47.084Z,13.27
2023-04-17T03:28:24.621Z,11.40
2023-04-17T03:30:54.985Z,12.27
2023-04-17T03:33:25.372Z,12.83
2023-04-17T03:35:56.050Z,10.60
2023-04-17T03:38:26.560Z,11.20
2023-04-17T03:40:56.698Z,11.67
2023-04-17T03:43:33.507Z,10.90
2023-04-17T03:46:02.080Z,11.93
2023-04-17T03:48:33.400Z,12.17
2023-04-17T03:51:02.462Z,11.53
2023-04-17T03:53:32.449Z,10.80
2023-04-17T03:56:04.332Z,10.17
2023-04-17T03:58:40.587Z,12.40
2023-04-17T04:01:12.851Z,11.80
2023-04-17T04:03:53.527Z,11.90
2023-04-17T04:06:23.604Z,9.77
2023-04-17T04:08:55.117Z,9.93
2023-04-17T04:11:24.786Z,11.47
2023-04-17T04:13:55.587Z,10.67
2023-04-17T04:16:25.087Z,10.50
2023-04-17T04:19:01.052Z,11.97
2023-04-17T04:21:34.142Z,11.80
2023-04-17T04:24:11.747Z,9.40
2023-04-17T04:26:42.413Z,12.63
2023-04-17T04:29:14.090Z,11.10
2023-04-17T04:31:54.684Z,12.33
2023-04-17T04:34:30.516Z,10.47
2023-04-17T04:37:00.254Z,10.97
2023-04-17T04:39:38.103Z,12.43
2023-04-17T04:42:11.838Z,10.97
2023-04-17T04:44:58.757Z,11.30
2023-04-17T04:47:33.477Z,13.10
2023-04-17T04:50:03.811Z,12.63
2023-04-17T04:52:33.298Z,11.77
2023-04-17T04:55:10.218Z,13.13
2023-04-17T04:57:47.263Z,13.80
2023-04-17T05:00:20.574Z,13.50
2023-04-17T05:02:53.272Z,11.80
2023-04-17T05:05:28.346Z,14.23
2023-04-17T05:07:58.348Z,12.90
2023-04-17T05:10:32.873Z,13.40
2023-04-17T05:13:06.969Z,13.47
2023-04-17T05:15:37.742Z,13.37
2023-04-17T05:18:07.735Z,12.90
2023-04-17T05:20:37.903Z,11.13
2023-04-17T05:23:07.289Z,13.93
2023-04-17T05:25:35.886Z,12.90
2023-04-17T05:28:09.423Z,13.20
2023-04-17T05:30:41.701Z,11.70
2023-04-17T05:33:19.517Z,12.10
2023-04-17T05:35:56.097Z,11.93
2023-04-17T05:38:26.804Z,10.20
2023-04-17T05:41:00.439Z,11.40
2023-04-17T05:43:29.579Z,11.10
2023-04-17T05:46:03.195Z,11.20
2023-04-17T05:48:34.847Z,12.13
2023-04-17T05:51:08.598Z,10.30
2023-04-17T05:53:39.855Z,10.27
2023-04-17T05:56:11.969Z,10.27
2023-04-17T05:58:41.332Z,10.33
2023-04-17T06:01:20.944Z,8.57
2023-04-17T06:03:53.335Z,9.27
2023-04-17T06:06:27.563Z,10.50
2023-04-17T06:08:57.961Z,9.77
2023-04-17T06:11:27.581Z,8.00
2023-04-17T06:13:57.912Z,8.63
2023-04-17T06:16:28.795Z,8.53
2023-04-17T06:18:57.777Z,8.83
2023-04-17T06:21:26.802Z,9.53
2023-04-17T06:23:56.086Z,9.87
2023-04-17T06:26:27.362Z,8.47
2023-04-17T06:28:56.277Z,8.63
2023-04-17T06:31:30.406Z,9.67
2023-04-17T06:34:00.308Z,10.20
2023-04-17T06:36:35.818Z,9.97
2023-04-17T06:39:06.466Z,9.90
2023-04-17T06:41:37.519Z,9.47
2023-04-17T06:44:08.234Z,9.33
2023-04-17T06:46:53.978Z,8.53
2023-04-17T06:49:27.643Z,8.37
2023-04-17T06:51:56.682Z,9.17
2023-04-17T06:54:26.105Z,9.40
2023-04-17T06:56:58.941Z,7.90
2023-04-17T06:59:34.252Z,7.90
2023-04-17T07:02:05.761Z,7.67
2023-04-17T07:04:35.251Z,7.20
2023-04-17T07:07:04.065Z,6.87
2023-04-17T07:09:33.608Z,7.90
2023-04-17T07:12:07.009Z,8.10
2023-04-17T07:14:36.979Z,7.50
2023-04-17T07:17:06.773Z,7.83
2023-04-17T07:19:37.228Z,6.87
2023-04-17T07:22:06.804Z,7.40
2023-04-17T07:24:38.927Z,6.07
2023-04-17T07:27:08.298Z,6.73
2023-04-17T07:29:36.933Z,6.40
2023-04-17T07:32:07.927Z,6.17
2023-04-17T07:34:41.492Z,5.50
2023-04-17T07:37:10.435Z,5.27
2023-04-17T07:39:39.390Z,5.00
2023-04-17T07:42:09.334Z,5.63
2023-04-17T07:44:38.246Z,5.50
2023-04-17T07:47:09.093Z,4.90
2023-04-17T07:49:41.031Z,6.30
2023-04-17T07:52:12.717Z,6.80
2023-04-17T07:54:42.190Z,5.00
2023-04-17T07:57:12.669Z,4.37
2023-04-17T07:59:42.673Z,4.23
2023-04-17T08:02:13.612Z,4.53
2023-04-17T08:04:44.797Z,4.90
2023-04-17T08:07:15.178Z,4.20
2023-04-17T08:09:46.210Z,5.17
2023-04-17T08:12:15.268Z,5.87
2023-04-17T08:14:45.539Z,6.37
2023-04-17T08:17:18.365Z,6.07
2023-04-17T08:19:50.400Z,5.83
2023-04-17T08:22:22.206Z,6.17
2023-04-17T08:24:50.773Z,6.70
2023-04-17T08:27:19.668Z,6.90
2023-04-17T08:29:49.560Z,6.50
2023-04-17T08:32:20.869Z,6.60
2023-04-17T08:34:52.912Z,7.53
2023-04-17T08:37:23.818Z,6.27
2023-04-17T08:39:54.085Z,5.50
2023-04-17T08:42:27.027Z,6.90
2023-04-17T08:45:02.224Z,6.60
2023-04-17T08:47:32.860Z,5.47
2023-04-17T08:50:04.501Z,7.07
2023-04-17T08:52:34.602Z,10.27
2023-04-17T08:55:03.935Z,5.53
2023-04-17T08:57:33.127Z,6.50
2023-04-17T09:00:07.247Z,5.70
2023-04-17T09:02:55.008Z,5.80
2023-04-17T09:05:25.261Z,6.10
2023-04-17T09:08:21.177Z,6.43
2023-04-17T09:10:53.645Z,6.60
2023-04-17T09:13:25.559Z,6.03
2023-04-17T09:16:09.907Z,6.90
2023-04-17T09:18:42.857Z,6.90
2023-04-17T09:21:12.471Z,6.93
2023-04-17T09:23:55.184Z,6.80
2023-04-17T09:26:26.544Z,5.77
2023-04-17T09:29:09.134Z,6.50
2023-04-17T09:31:40.852Z,7.20
2023-04-17T09:34:14.473Z,7.50
2023-04-17T09:36:45.937Z,6.43
2023-04-17T09:39:21.215Z,7.10
2023-04-17T09:41:49.961Z,6.90
2023-04-17T09:44:28.331Z,5.60
2023-04-17T09:46:59.107Z,7.10
2023-04-17T09:49:37.148Z,6.73
2023-04-17T09:52:08.245Z,6.47
2023-04-17T09:54:40.638Z,7.17
2023-04-17T09:57:11.118Z,6.73
2023-04-17T09:59:42.532Z,5.93
2023-04-17T10:02:16.979Z,5.80
2023-04-17T10:04:49.227Z,6.20
2023-04-17T10:07:22.454Z,5.30
2023-04-17T10:09:52.142Z,5.83
2023-04-17T10:12:22.683Z,6.03
2023-04-17T10:14:53.594Z,5.20
2023-04-17T10:17:29.040Z,28.60
2023-04-17T10:20:35.681Z,6.43
2023-04-17T10:23:34.881Z,4.93
2023-04-17T10:26:47.294Z,6.50
2023-04-17T10:29:16.072Z,5.07
2023-04-17T10:32:27.371Z,4.80
2023-04-17T10:35:03.977Z,4.13
2023-04-17T10:38:06.733Z,4.90
2023-04-17T10:40:38.318Z,3.93
2023-04-17T10:43:15.136Z,4.17
2023-04-17T10:46:04.978Z,5.00
2023-04-17T10:48:40.889Z,4.47
2023-04-17T10:51:42.842Z,4.17
2023-04-17T10:54:13.723Z,4.37
2023-04-17T10:56:48.417Z,4.50
2023-04-17T10:59:23.246Z,5.27
2023-04-17T11:02:05.176Z,4.43
2023-04-17T11:04:35.350Z,4.30
2023-04-17T11:07:05.729Z,4.93
2023-04-17T11:09:42.841Z,4.70
2023-04-17T11:12:15.769Z,5.50
2023-04-17T11:14:49.733Z,5.17
2023-04-17T11:17:24.546Z,5.37
2023-04-17T11:19:53.396Z,5.13
2023-04-17T11:22:25.471Z,5.30
2023-04-17T11:24:53.959Z,5.50
2023-04-17T11:27:24.973Z,4.63
2023-04-17T11:29:54.025Z,5.93
2023-04-17T11:32:23.225Z,4.93
2023-04-17T11:34:56.901Z,5.27
2023-04-17T11:37:27.157Z,4.93
2023-04-17T11:40:07.531Z,5.27
2023-04-17T11:42:36.551Z,4.87
2023-04-17T11:45:08.636Z,4.87
2023-04-17T11:47:37.761Z,5.47
2023-04-17T11:50:09.056Z,5.03
2023-04-17T11:52:40.010Z,5.43
2023-04-17T11:55:11.356Z,5.40
2023-04-17T11:57:47.437Z,5.13
2023-04-17T12:00:27.618Z,5.40
2023-04-17T12:02:58.758Z,4.83
2023-04-17T12:05:30.394Z,5.10
2023-04-17T12:08:17.154Z,4.67
2023-04-17T12:10:47.658Z,4.37
2023-04-17T12:13:16.330Z,4.33
2023-04-17T12:15:47.042Z,4.60
2023-04-17T12:18:16.690Z,4.70
2023-04-17T12:20:46.591Z,5.47
2023-04-17T12:23:16.844Z,3.93
2023-04-17T12:25:46.500Z,4.40
2023-04-17T12:28:16.765Z,6.00
2023-04-17T12:30:45.719Z,9.20
2023-04-17T12:33:15.510Z,5.23
2023-04-17T12:35:44.763Z,4.20
2023-04-17T12:38:18.155Z,4.90
2023-04-17T12:40:47.431Z,4.57
2023-04-17T12:43:17.856Z,4.13
2023-04-17T12:45:48.559Z,5.40
2023-04-17T12:48:17.464Z,6.50
2023-04-17T12:50:46.590Z,5.50
2023-04-17T12:53:19.946Z,4.13
2023-04-17T12:55:49.868Z,4.80
2023-04-17T12:58:20.232Z,4.63
2023-04-17T13:00:52.392Z,4.30
2023-04-17T13:03:23.067Z,4.60
2023-04-17T13:05:54.965Z,4.80
2023-04-17T13:08:28.591Z,4.73
2023-04-17T13:11:00.284Z,4.60
2023-04-17T13:13:29.813Z,4.90
2023-04-17T13:16:00.063Z,3.93
2023-04-17T13:18:29.297Z,5.00
2023-04-17T13:21:00.939Z,4.70
2023-04-17T13:23:32.714Z,4.77
2023-04-17T13:26:01.494Z,4.20
2023-04-17T13:28:30.390Z,4.40
2023-04-17T13:30:59.317Z,4.63
2023-04-17T13:33:28.164Z,3.83
2023-04-17T13:35:57.690Z,4.50
2023-04-17T13:38:28.057Z,4.60
2023-04-17T13:41:00.114Z,5.07
2023-04-17T13:43:29.719Z,4.20
2023-04-17T13:46:01.031Z,4.97
2023-04-17T13:48:30.286Z,4.30
2023-04-17T13:50:59.914Z,4.13
2023-04-17T13:53:32.194Z,4.37
2023-04-17T13:56:02.722Z,4.33
2023-04-17T13:58:35.156Z,4.07
2023-04-17T14:01:04.610Z,4.50
2023-04-17T14:03:38.981Z,3.60
2023-04-17T14:06:09.321Z,4.90
2023-04-17T14:08:41.758Z,4.80
2023-04-17T14:11:17.769Z,4.00
2023-04-17T14:13:46.332Z,3.63
2023-04-17T14:16:15.852Z,4.00
2023-04-17T14:18:45.232Z,4.03
2023-04-17T14:21:15.425Z,3.90
2023-04-17T14:23:44.980Z,4.07
2023-04-17T14:26:16.924Z,4.03
2023-04-17T14:28:46.563Z,4.33
2023-04-17T14:31:17.087Z,4.40
2023-04-17T14:33:47.321Z,7.50
2023-04-17T14:36:17.544Z,4.17
2023-04-17T14:38:51.358Z,3.50
2023-04-17T14:41:22.720Z,3.40
2023-04-17T14:43:51.431Z,3.20
2023-04-17T14:46:22.301Z,3.77
2023-04-17T14:48:55.770Z,4.20
2023-04-17T14:51:25.740Z,3.80
2023-04-17T14:53:57.458Z,3.20
2023-04-17T14:56:31.861Z,4.03
2023-04-17T14:59:01.962Z,3.93
2023-04-17T15:01:38.356Z,3.60
2023-04-17T15:04:11.509Z,3.93
2023-04-17T15:06:41.251Z,4.20
2023-04-17T15:09:11.699Z,3.03
2023-04-17T15:11:42.948Z,3.33
2023-04-17T15:14:13.325Z,3.33
2023-04-17T15:16:43.660Z,3.70
2023-04-17T15:19:15.501Z,3.03
2023-04-17T15:21:44.602Z,3.43
2023-04-17T15:24:19.221Z,3.17
2023-04-17T15:26:51.812Z,3.30
2023-04-17T15:29:23.097Z,3.40
2023-04-17T15:31:57.766Z,2.90
2023-04-17T15:34:27.145Z,3.50
2023-04-17T15:36:55.976Z,3.07
2023-04-17T15:39:26.623Z,3.50
2023-04-17T15:42:01.682Z,3.10
2023-04-17T15:44:30.745Z,2.90
2023-04-17T15:47:01.434Z,2.70
2023-04-17T15:49:31.253Z,3.23
2023-04-17T15:52:01.279Z,3.33
2023-04-17T15:54:30.444Z,2.90
2023-04-17T15:57:02.014Z,2.30
2023-04-17T15:59:32.124Z,3.30
2023-04-17T16:02:03.209Z,2.30
2023-04-17T16:04:34.039Z,2.90
2023-04-17T16:07:06.621Z,2.70
2023-04-17T16:09:36.119Z,3.00
2023-04-17T16:12:10.648Z,2.70
2023-04-17T16:14:40.098Z,2.67
2023-04-17T16:17:10.318Z,3.30
2023-04-17T16:19:41.879Z,2.50
2023-04-17T16:22:10.622Z,2.50
2023-04-17T16:24:40.837Z,2.70
2023-04-17T16:27:11.217Z,2.60
2023-04-17T16:29:40.602Z,2.60
2023-04-17T16:32:09.584Z,2.43
2023-04-17T16:34:40.545Z,2.90
2023-04-17T16:37:11.823Z,1.87
2023-04-17T16:39:41.440Z,2.10
2023-04-17T16:42:14.440Z,2.00
2023-04-17T16:44:43.654Z,1.73
2023-04-17T16:47:14.351Z,1.80
2023-04-17T16:49:43.500Z,1.70
2023-04-17T16:52:13.131Z,1.70
2023-04-17T16:54:43.202Z,2.30
2023-04-17T16:57:13.245Z,1.23
2023-04-17T16:59:42.566Z,1.10
2023-04-17T17:02:10.974Z,1.37
2023-04-17T17:04:45.568Z,1.70
2023-04-17T17:07:16.263Z,1.17
2023-04-17T17:09:50.174Z,1.60
2023-04-17T17:12:24.238Z,1.10
2023-04-17T17:14:53.816Z,1.70
2023-04-17T17:17:22.870Z,1.10
2023-04-17T17:19:54.401Z,1.40
2023-04-17T17:22:28.269Z,1.30
2023-04-17T17:24:59.715Z,1.40
2023-04-17T17:27:32.013Z,1.30
2023-04-17T17:30:01.261Z,1.23
2023-04-17T17:32:33.314Z,1.43
2023-04-17T17:35:04.106Z,1.77
2023-04-17T17:37:32.737Z,1.20
2023-04-17T17:40:03.691Z,1.17
2023-04-17T17:42:38.237Z,18.37
2023-04-17T17:45:09.168Z,1.90
2023-04-17T17:47:38.660Z,1.20
2023-04-17T17:50:10.765Z,1.33
2023-04-17T17:52:39.692Z,1.20
2023-04-17T17:55:12.130Z,1.13
2023-04-17T17:57:49.467Z,1.00
2023-04-17T18:00:21.953Z,1.00
2023-04-17T18:02:52.259Z,0.70
2023-04-17T18:05:22.560Z,1.13
2023-04-17T18:07:52.162Z,1.03
2023-04-17T18:13:07.376Z,1.30
2023-04-17T18:15:37.844Z,1.20
2023-04-17T18:18:08.460Z,0.90
2023-04-17T18:20:41.016Z,1.30
2023-04-17T18:23:13.564Z,1.30
2023-04-17T18:25:42.638Z,0.93
2023-04-17T18:28:14.138Z,1.13
2023-04-17T18:30:44.975Z,7.17
2023-04-17T18:33:16.395Z,1.50
2023-04-17T18:35:45.381Z,1.77
2023-04-17T18:38:14.717Z,1.93
2023-04-17T18:40:45.166Z,1.90
2023-04-17T18:43:15.579Z,1.60
2023-04-17T18:45:47.893Z,2.00
2023-04-17T18:48:18.839Z,2.13
2023-04-17T18:50:48.438Z,2.00
2023-04-17T18:53:18.266Z,3.20
2023-04-17T18:55:48.238Z,3.27
2023-04-17T18:58:18.370Z,4.20
2023-04-17T19:00:48.027Z,3.30
2023-04-17T19:03:17.668Z,3.00
2023-04-17T19:05:47.051Z,2.27
2023-04-17T19:08:16.719Z,2.70
2023-04-17T19:10:49.470Z,3.27
2023-04-17T19:13:22.036Z,2.80
2023-04-17T19:15:53.604Z,3.60
2023-04-17T19:18:24.304Z,3.63
2023-04-17T19:20:53.900Z,4.77
2023-04-17T19:23:22.690Z,5.83
2023-04-17T19:25:54.763Z,5.90
2023-04-17T19:28:27.137Z,6.43
2023-04-17T19:30:56.352Z,5.60
2023-04-17T19:33:29.483Z,5.57
2023-04-17T19:35:59.885Z,6.07
2023-04-17T19:38:29.998Z,7.03
2023-04-17T19:41:15.518Z,8.30
2023-04-17T19:43:46.320Z,8.83
2023-04-17T19:46:17.614Z,8.70
2023-04-17T19:48:48.278Z,9.17
2023-04-17T19:51:17.895Z,10.50
2023-04-17T19:53:51.985Z,9.70
2023-04-17T19:56:21.092Z,8.57
2023-04-17T19:58:53.022Z,8.80
2023-04-17T20:01:21.987Z,8.13
2023-04-17T20:03:51.819Z,8.87
2023-04-17T20:06:21.369Z,8.47
2023-04-17T20:08:54.092Z,10.57
2023-04-17T20:11:26.799Z,10.03
2023-04-17T20:13:58.224Z,10.60
2023-04-17T20:16:28.984Z,10.00
2023-04-17T20:19:02.168Z,10.73
2023-04-17T20:21:32.181Z,10.73
2023-04-17T20:24:00.661Z,11.23
2023-04-17T20:26:30.596Z,11.77
2023-04-17T20:29:01.408Z,10.97
2023-04-17T20:31:34.109Z,10.90
2023-04-17T20:34:04.690Z,12.50
2023-04-17T20:36:33.216Z,11.60
2023-04-17T20:39:03.391Z,11.50
2023-04-17T20:41:36.791Z,11.00
2023-04-17T20:44:10.050Z,12.83
2023-04-17T20:46:44.887Z,11.93
2023-04-17T20:49:13.545Z,12.17
2023-04-17T20:51:42.365Z,11.10
2023-04-17T20:54:12.413Z,12.50
2023-04-17T20:56:41.706Z,12.70
2023-04-17T20:59:13.601Z,10.93
2023-04-17T21:01:44.024Z,11.77
2023-04-17T21:04:13.839Z,12.47
2023-04-17T21:06:43.810Z,11.00
2023-04-17T21:09:14.856Z,13.63
2023-04-17T21:11:44.305Z,11.63
2023-04-17T21:14:15.505Z,12.53
2023-04-17T21:16:45.280Z,11.27
2023-04-17T21:19:16.043Z,13.23
2023-04-17T21:21:47.770Z,11.97
2023-04-17T21:24:18.751Z,13.60
2023-04-17T21:26:49.360Z,10.80
2023-04-17T21:29:21.706Z,11.97
2023-04-17T21:31:50.729Z,11.87
2023-04-17T21:34:21.172Z,12.63
2023-04-17T21:36:52.720Z,12.40
2023-04-17T21:39:22.922Z,12.60
2023-04-17T21:41:52.174Z,10.90
2023-04-17T21:44:25.051Z,10.97
2023-04-17T21:46:58.330Z,10.60
2023-04-17T21:49:27.079Z,13.03
2023-04-17T21:51:56.076Z,11.00
2023-04-17T21:54:27.903Z,11.13
2023-04-17T21:56:56.952Z,13.13
2023-04-17T21:59:27.486Z,11.57
2023-04-17T22:01:56.556Z,11.70
2023-04-17T22:04:27.088Z,12.13
2023-04-17T22:06:57.927Z,12.40
2023-04-17T22:09:28.981Z,11.80
2023-04-17T22:11:59.417Z,11.53
2023-04-17T22:14:29.543Z,12.33
2023-04-17T22:16:58.614Z,10.83
2023-04-17T22:19:27.515Z,11.00
2023-04-17T22:21:56.206Z,9.90
2023-04-17T22:24:25.829Z,12.00
2023-04-17T22:26:55.925Z,11.63
2023-04-17T22:29:24.996Z,11.50
2023-04-17T22:31:56.097Z,11.00
2023-04-17T22:34:25.325Z,11.00
2023-04-17T22:36:54.226Z,11.90
2023-04-17T22:39:24.922Z,10.30
2023-04-17T22:41:57.316Z,10.50
2023-04-17T22:44:28.126Z,11.70
2023-04-17T22:47:00.854Z,12.00
2023-04-17T22:49:31.428Z,10.80
2023-04-17T22:52:03.705Z,11.00
2023-04-17T22:54:32.506Z,12.73
2023-04-17T22:57:02.368Z,10.80
2023-04-17T22:59:30.948Z,10.37
2023-04-17T23:02:01.901Z,11.83
2023-04-17T23:04:33.219Z,11.60
2023-04-17T23:07:02.639Z,12.20
2023-04-17T23:09:31.783Z,12.33
2023-04-17T23:12:00.651Z,9.80
2023-04-17T23:14:30.008Z,9.87
2023-04-17T23:16:58.507Z,13.07
2023-04-17T23:19:29.301Z,10.43
2023-04-17T23:21:59.813Z,11.70
2023-04-17T23:24:35.785Z,10.47
2023-04-17T23:27:04.617Z,11.60
2023-04-17T23:29:35.430Z,11.20
2023-04-17T23:32:04.891Z,12.27
2023-04-17T23:34:38.605Z,11.10
2023-04-17T23:37:07.788Z,11.63
2023-04-17T23:39:37.540Z,10.43
2023-04-17T23:42:08.213Z,11.40
2023-04-17T23:44:39.123Z,12.17
2023-04-17T23:47:10.705Z,11.80
2023-04-17T23:49:41.203Z,11.87
2023-04-17T23:52:11.589Z,10.07
2023-04-17T23:54:42.546Z,12.73
2023-04-17T23:57:11.267Z,10.63
2023-04-17T23:59:40.074Z,11.87
